sensor_id;sensor_type;location;lat;lon;timestamp;temperature;humidity
56240;DHT22;42154;51.992;5.896;2024-02-26T00:01:38;6.50;99.90
56240;DHT22;42154;51.992;5.896;2024-02-26T00:04:03;6.50;99.90
56240;DHT22;42154;51.992;5.896;2024-02-26T00:06:30;6.50;99.90
56240;DHT22;42154;51.992;5.896;2024-02-26T00:08:56;6.50;99.90
56240;DHT22;42154;51.992;5.896;2024-02-26T00:11:21;6.50;99.90
56240;DHT22;42154;51.992;5.896;2024-02-26T00:13:47;6.50;99.90
56240;DHT22;42154;51.992;5.896;2024-02-26T00:16:13;6.40;99.90
56240;DHT22;42154;51.992;5.896;2024-02-26T00:18:39;6.50;99.90
56240;DHT22;42154;51.992;5.896;2024-02-26T00:21:05;6.50;99.90
56240;DHT22;42154;51.992;5.896;2024-02-26T00:23:31;6.40;99.90
56240;DHT22;42154;51.992;5.896;2024-02-26T00:25:57;6.40;99.90
56240;DHT22;42154;51.992;5.896;2024-02-26T00:28:23;6.40;99.90
56240;DHT22;42154;51.992;5.896;2024-02-26T00:30:50;6.40;99.90
56240;DHT22;42154;51.992;5.896;2024-02-26T00:33:21;6.30;99.90
56240;DHT22;42154;51.992;5.896;2024-02-26T00:35:47;6.40;99.90
56240;DHT22;42154;51.992;5.896;2024-02-26T00:38:13;6.40;99.90
56240;DHT22;42154;51.992;5.896;2024-02-26T00:40:39;6.30;99.90
56240;DHT22;42154;51.992;5.896;2024-02-26T00:43:06;6.30;99.90
56240;DHT22;42154;51.992;5.896;2024-02-26T00:45:32;6.30;99.90
56240;DHT22;42154;51.992;5.896;2024-02-26T00:47:58;6.30;99.90
56240;DHT22;42154;51.992;5.896;2024-02-26T00:50:27;6.30;99.90
56240;DHT22;42154;51.992;5.896;2024-02-26T00:52:52;6.30;99.90
56240;DHT22;42154;51.992;5.896;2024-02-26T00:55:18;6.40;99.90
56240;DHT22;42154;51.992;5.896;2024-02-26T00:57:44;6.40;99.90
56240;DHT22;42154;51.992;5.896;2024-02-26T01:00:10;6.30;99.90
56240;DHT22;42154;51.992;5.896;2024-02-26T01:02:36;6.30;99.90
56240;DHT22;42154;51.992;5.896;2024-02-26T01:05:02;6.30;99.90
56240;DHT22;42154;51.992;5.896;2024-02-26T01:07:28;6.40;99.90
56240;DHT22;42154;51.992;5.896;2024-02-26T01:09:54;6.30;99.90
56240;DHT22;42154;51.992;5.896;2024-02-26T01:12:19;6.40;99.90
56240;DHT22;42154;51.992;5.896;2024-02-26T01:14:45;6.40;99.90
56240;DHT22;42154;51.992;5.896;2024-02-26T01:17:11;6.30;99.90
56240;DHT22;42154;51.992;5.896;2024-02-26T01:19:36;6.30;99.90
56240;DHT22;42154;51.992;5.896;2024-02-26T01:22:02;6.30;99.90
56240;DHT22;42154;51.992;5.896;2024-02-26T01:24:29;6.30;99.90
56240;DHT22;42154;51.992;5.896;2024-02-26T01:26:55;6.30;99.90
56240;DHT22;42154;51.992;5.896;2024-02-26T01:29:20;6.20;99.90
56240;DHT22;42154;51.992;5.896;2024-02-26T01:31:46;6.20;99.90
56240;DHT22;42154;51.992;5.896;2024-02-26T01:34:12;6.20;99.90
56240;DHT22;42154;51.992;5.896;2024-02-26T01:36:37;6.20;99.90
56240;DHT22;42154;51.992;5.896;2024-02-26T01:39:03;6.20;99.90
56240;DHT22;42154;51.992;5.896;2024-02-26T01:41:29;6.10;99.90
56240;DHT22;42154;51.992;5.896;2024-02-26T01:43:54;6.10;99.90
56240;DHT22;42154;51.992;5.896;2024-02-26T01:46:20;6.20;99.90
56240;DHT22;42154;51.992;5.896;2024-02-26T01:48:47;6.10;99.90
56240;DHT22;42154;51.992;5.896;2024-02-26T01:51:15;6.10;99.90
56240;DHT22;42154;51.992;5.896;2024-02-26T01:53:43;6.10;99.90
56240;DHT22;42154;51.992;5.896;2024-02-26T01:56:09;6.10;99.90
56240;DHT22;42154;51.992;5.896;2024-02-26T01:58:36;6.10;99.90
56240;DHT22;42154;51.992;5.896;2024-02-26T02:01:02;6.10;99.90
56240;DHT22;42154;51.992;5.896;2024-02-26T02:03:29;6.00;99.90
56240;DHT22;42154;51.992;5.896;2024-02-26T02:05:55;6.10;99.90
56240;DHT22;42154;51.992;5.896;2024-02-26T02:08:22;6.10;99.90
56240;DHT22;42154;51.992;5.896;2024-02-26T02:10:49;6.00;99.90
56240;DHT22;42154;51.992;5.896;2024-02-26T02:13:15;6.10;99.90
56240;DHT22;42154;51.992;5.896;2024-02-26T02:15:41;6.10;99.90
56240;DHT22;42154;51.992;5.896;2024-02-26T02:18:07;6.10;99.90
56240;DHT22;42154;51.992;5.896;2024-02-26T02:20:34;6.20;99.90
56240;DHT22;42154;51.992;5.896;2024-02-26T02:22:59;6.20;99.90
56240;DHT22;42154;51.992;5.896;2024-02-26T02:25:25;6.20;99.90
56240;DHT22;42154;51.992;5.896;2024-02-26T02:27:53;6.20;99.90
56240;DHT22;42154;51.992;5.896;2024-02-26T02:30:20;6.30;99.90
56240;DHT22;42154;51.992;5.896;2024-02-26T02:32:46;6.30;99.90
56240;DHT22;42154;51.992;5.896;2024-02-26T02:35:12;6.30;99.90
56240;DHT22;42154;51.992;5.896;2024-02-26T02:37:38;6.30;99.90
56240;DHT22;42154;51.992;5.896;2024-02-26T02:40:04;6.30;99.90
56240;DHT22;42154;51.992;5.896;2024-02-26T02:42:30;6.30;99.90
56240;DHT22;42154;51.992;5.896;2024-02-26T02:44:56;6.40;99.90
56240;DHT22;42154;51.992;5.896;2024-02-26T02:47:22;6.40;99.90
56240;DHT22;42154;51.992;5.896;2024-02-26T02:49:48;6.40;99.90
56240;DHT22;42154;51.992;5.896;2024-02-26T02:52:13;6.40;99.90
56240;DHT22;42154;51.992;5.896;2024-02-26T02:54:39;6.40;99.90
56240;DHT22;42154;51.992;5.896;2024-02-26T02:57:10;6.50;99.90
56240;DHT22;42154;51.992;5.896;2024-02-26T02:59:37;6.50;99.90
56240;DHT22;42154;51.992;5.896;2024-02-26T03:02:02;6.40;99.90
56240;DHT22;42154;51.992;5.896;2024-02-26T03:04:28;6.40;99.90
56240;DHT22;42154;51.992;5.896;2024-02-26T03:06:55;6.40;99.90
56240;DHT22;42154;51.992;5.896;2024-02-26T03:09:21;6.40;99.90
56240;DHT22;42154;51.992;5.896;2024-02-26T03:11:46;6.40;99.90
56240;DHT22;42154;51.992;5.896;2024-02-26T03:14:12;6.40;99.90
56240;DHT22;42154;51.992;5.896;2024-02-26T03:16:38;6.40;99.90
56240;DHT22;42154;51.992;5.896;2024-02-26T03:19:03;6.40;99.90
56240;DHT22;42154;51.992;5.896;2024-02-26T03:21:29;6.40;99.90
56240;DHT22;42154;51.992;5.896;2024-02-26T03:23:55;6.50;99.90
56240;DHT22;42154;51.992;5.896;2024-02-26T03:26:21;6.50;99.90
56240;DHT22;42154;51.992;5.896;2024-02-26T03:28:47;6.50;99.90
56240;DHT22;42154;51.992;5.896;2024-02-26T03:31:13;6.50;99.90
56240;DHT22;42154;51.992;5.896;2024-02-26T03:33:39;6.50;99.90
56240;DHT22;42154;51.992;5.896;2024-02-26T03:36:05;6.50;99.90
56240;DHT22;42154;51.992;5.896;2024-02-26T03:38:33;6.40;99.90
56240;DHT22;42154;51.992;5.896;2024-02-26T03:40:58;6.40;99.90
56240;DHT22;42154;51.992;5.896;2024-02-26T03:43:24;6.40;99.90
56240;DHT22;42154;51.992;5.896;2024-02-26T03:45:50;6.40;99.90
56240;DHT22;42154;51.992;5.896;2024-02-26T03:48:15;6.40;99.90
56240;DHT22;42154;51.992;5.896;2024-02-26T03:50:41;6.40;99.90
56240;DHT22;42154;51.992;5.896;2024-02-26T03:53:07;6.40;99.90
56240;DHT22;42154;51.992;5.896;2024-02-26T03:55:35;6.30;99.90
56240;DHT22;42154;51.992;5.896;2024-02-26T03:58:00;6.30;99.90
56240;DHT22;42154;51.992;5.896;2024-02-26T04:00:26;6.30;99.90
56240;DHT22;42154;51.992;5.896;2024-02-26T04:02:54;6.40;99.90
56240;DHT22;42154;51.992;5.896;2024-02-26T04:05:20;6.20;99.90
56240;DHT22;42154;51.992;5.896;2024-02-26T04:07:45;6.20;99.90
56240;DHT22;42154;51.992;5.896;2024-02-26T04:10:12;6.20;99.90
56240;DHT22;42154;51.992;5.896;2024-02-26T04:12:41;6.10;99.90
56240;DHT22;42154;51.992;5.896;2024-02-26T04:15:08;6.10;99.90
56240;DHT22;42154;51.992;5.896;2024-02-26T04:17:34;6.10;99.90
56240;DHT22;42154;51.992;5.896;2024-02-26T04:20:00;6.10;99.90
56240;DHT22;42154;51.992;5.896;2024-02-26T04:22:26;6.00;99.90
56240;DHT22;42154;51.992;5.896;2024-02-26T04:24:52;5.90;99.90
56240;DHT22;42154;51.992;5.896;2024-02-26T04:27:18;5.90;99.90
56240;DHT22;42154;51.992;5.896;2024-02-26T04:29:43;5.90;99.90
56240;DHT22;42154;51.992;5.896;2024-02-26T04:32:09;5.90;99.90
56240;DHT22;42154;51.992;5.896;2024-02-26T04:34:35;5.90;99.90
56240;DHT22;42154;51.992;5.896;2024-02-26T04:37:01;5.90;99.90
56240;DHT22;42154;51.992;5.896;2024-02-26T04:39:26;5.90;99.90
56240;DHT22;42154;51.992;5.896;2024-02-26T04:41:52;5.90;99.90
56240;DHT22;42154;51.992;5.896;2024-02-26T04:44:18;5.90;99.90
56240;DHT22;42154;51.992;5.896;2024-02-26T04:46:44;5.90;99.90
56240;DHT22;42154;51.992;5.896;2024-02-26T04:49:09;5.90;99.90
56240;DHT22;42154;51.992;5.896;2024-02-26T04:51:35;5.90;99.90
56240;DHT22;42154;51.992;5.896;2024-02-26T04:54:01;5.80;99.90
56240;DHT22;42154;51.992;5.896;2024-02-26T04:56:26;5.90;99.90
56240;DHT22;42154;51.992;5.896;2024-02-26T04:58:52;5.80;99.90
56240;DHT22;42154;51.992;5.896;2024-02-26T05:01:18;5.80;99.90
56240;DHT22;42154;51.992;5.896;2024-02-26T05:03:44;5.80;99.90
56240;DHT22;42154;51.992;5.896;2024-02-26T05:06:10;5.80;99.90
56240;DHT22;42154;51.992;5.896;2024-02-26T05:08:36;5.70;99.90
56240;DHT22;42154;51.992;5.896;2024-02-26T05:11:03;5.70;99.90
56240;DHT22;42154;51.992;5.896;2024-02-26T05:13:29;5.70;99.90
56240;DHT22;42154;51.992;5.896;2024-02-26T05:15:55;5.70;99.90
56240;DHT22;42154;51.992;5.896;2024-02-26T05:18:21;5.70;99.90
56240;DHT22;42154;51.992;5.896;2024-02-26T05:20:47;5.70;99.90
56240;DHT22;42154;51.992;5.896;2024-02-26T05:23:13;5.70;99.90
56240;DHT22;42154;51.992;5.896;2024-02-26T05:25:38;5.70;99.90
56240;DHT22;42154;51.992;5.896;2024-02-26T05:28:04;5.70;99.90
56240;DHT22;42154;51.992;5.896;2024-02-26T05:30:30;5.60;99.90
56240;DHT22;42154;51.992;5.896;2024-02-26T05:32:56;5.60;99.90
56240;DHT22;42154;51.992;5.896;2024-02-26T05:35:22;5.70;99.90
56240;DHT22;42154;51.992;5.896;2024-02-26T05:37:48;5.60;99.90
56240;DHT22;42154;51.992;5.896;2024-02-26T05:40:13;5.70;99.90
56240;DHT22;42154;51.992;5.896;2024-02-26T05:42:39;5.60;99.90
56240;DHT22;42154;51.992;5.896;2024-02-26T05:45:06;5.60;99.90
56240;DHT22;42154;51.992;5.896;2024-02-26T05:47:35;5.60;99.90
56240;DHT22;42154;51.992;5.896;2024-02-26T05:50:01;5.60;99.90
56240;DHT22;42154;51.992;5.896;2024-02-26T05:52:28;5.50;99.90
56240;DHT22;42154;51.992;5.896;2024-02-26T05:54:57;5.50;99.90
56240;DHT22;42154;51.992;5.896;2024-02-26T05:57:22;5.50;99.90
56240;DHT22;42154;51.992;5.896;2024-02-26T05:59:48;5.50;99.90
56240;DHT22;42154;51.992;5.896;2024-02-26T06:02:14;5.50;99.90
56240;DHT22;42154;51.992;5.896;2024-02-26T06:04:39;5.50;99.90
56240;DHT22;42154;51.992;5.896;2024-02-26T06:07:05;5.50;99.90
56240;DHT22;42154;51.992;5.896;2024-02-26T06:09:32;5.50;99.90
56240;DHT22;42154;51.992;5.896;2024-02-26T06:11:58;5.60;99.90
56240;DHT22;42154;51.992;5.896;2024-02-26T06:14:23;5.50;99.90
56240;DHT22;42154;51.992;5.896;2024-02-26T06:16:50;5.60;99.90
56240;DHT22;42154;51.992;5.896;2024-02-26T06:19:15;5.50;99.90
56240;DHT22;42154;51.992;5.896;2024-02-26T06:21:41;5.50;99.90
56240;DHT22;42154;51.992;5.896;2024-02-26T06:24:07;5.50;99.90
56240;DHT22;42154;51.992;5.896;2024-02-26T06:26:32;5.50;99.90
56240;DHT22;42154;51.992;5.896;2024-02-26T06:28:59;5.60;99.90
56240;DHT22;42154;51.992;5.896;2024-02-26T06:31:24;5.60;99.90
56240;DHT22;42154;51.992;5.896;2024-02-26T06:33:53;5.60;99.90
56240;DHT22;42154;51.992;5.896;2024-02-26T06:36:19;5.60;99.90
56240;DHT22;42154;51.992;5.896;2024-02-26T06:38:45;5.60;99.90
56240;DHT22;42154;51.992;5.896;2024-02-26T06:41:11;5.60;99.90
56240;DHT22;42154;51.992;5.896;2024-02-26T06:43:37;5.60;99.90
56240;DHT22;42154;51.992;5.896;2024-02-26T06:46:02;5.60;99.90
56240;DHT22;42154;51.992;5.896;2024-02-26T06:48:28;5.60;99.90
56240;DHT22;42154;51.992;5.896;2024-02-26T06:50:54;5.60;99.90
56240;DHT22;42154;51.992;5.896;2024-02-26T06:53:20;5.60;99.90
56240;DHT22;42154;51.992;5.896;2024-02-26T06:55:45;5.60;99.90
56240;DHT22;42154;51.992;5.896;2024-02-26T06:58:11;5.60;99.90
56240;DHT22;42154;51.992;5.896;2024-02-26T07:00:37;5.60;99.90
56240;DHT22;42154;51.992;5.896;2024-02-26T07:03:03;5.60;99.90
56240;DHT22;42154;51.992;5.896;2024-02-26T07:05:29;5.60;99.90
56240;DHT22;42154;51.992;5.896;2024-02-26T07:07:54;5.50;99.90
56240;DHT22;42154;51.992;5.896;2024-02-26T07:10:20;5.60;99.90
56240;DHT22;42154;51.992;5.896;2024-02-26T07:12:46;5.50;99.90
56240;DHT22;42154;51.992;5.896;2024-02-26T07:15:13;5.50;99.90
56240;DHT22;42154;51.992;5.896;2024-02-26T07:17:38;5.60;99.90
56240;DHT22;42154;51.992;5.896;2024-02-26T07:20:08;5.60;99.90
56240;DHT22;42154;51.992;5.896;2024-02-26T07:22:34;5.50;99.90
56240;DHT22;42154;51.992;5.896;2024-02-26T07:25:00;5.60;99.90
56240;DHT22;42154;51.992;5.896;2024-02-26T07:27:26;5.50;99.90
56240;DHT22;42154;51.992;5.896;2024-02-26T07:29:51;5.50;99.90
56240;DHT22;42154;51.992;5.896;2024-02-26T07:32:17;5.50;99.90
56240;DHT22;42154;51.992;5.896;2024-02-26T07:34:43;5.60;99.90
56240;DHT22;42154;51.992;5.896;2024-02-26T07:37:10;5.60;99.90
56240;DHT22;42154;51.992;5.896;2024-02-26T07:39:36;5.60;99.90
56240;DHT22;42154;51.992;5.896;2024-02-26T07:42:02;5.60;99.90
56240;DHT22;42154;51.992;5.896;2024-02-26T07:44:28;5.60;99.90
56240;DHT22;42154;51.992;5.896;2024-02-26T07:46:54;5.60;99.90
56240;DHT22;42154;51.992;5.896;2024-02-26T07:49:20;5.60;99.90
56240;DHT22;42154;51.992;5.896;2024-02-26T07:51:46;5.60;99.90
56240;DHT22;42154;51.992;5.896;2024-02-26T07:54:11;5.60;99.90
56240;DHT22;42154;51.992;5.896;2024-02-26T07:56:37;5.60;99.90
56240;DHT22;42154;51.992;5.896;2024-02-26T07:59:03;5.60;99.90
56240;DHT22;42154;51.992;5.896;2024-02-26T08:01:29;5.60;99.90
56240;DHT22;42154;51.992;5.896;2024-02-26T08:03:55;5.60;99.90
56240;DHT22;42154;51.992;5.896;2024-02-26T08:06:21;5.60;99.90
56240;DHT22;42154;51.992;5.896;2024-02-26T08:08:47;5.60;99.90
56240;DHT22;42154;51.992;5.896;2024-02-26T08:11:14;5.50;99.90
56240;DHT22;42154;51.992;5.896;2024-02-26T08:13:41;5.60;99.90
56240;DHT22;42154;51.992;5.896;2024-02-26T08:16:07;5.60;99.90
56240;DHT22;42154;51.992;5.896;2024-02-26T08:18:33;5.60;99.90
56240;DHT22;42154;51.992;5.896;2024-02-26T08:20:59;5.60;99.90
56240;DHT22;42154;51.992;5.896;2024-02-26T08:23:24;5.50;99.90
56240;DHT22;42154;51.992;5.896;2024-02-26T08:25:51;5.60;99.90
56240;DHT22;42154;51.992;5.896;2024-02-26T08:28:17;5.60;99.90
56240;DHT22;42154;51.992;5.896;2024-02-26T08:30:44;5.50;99.90
56240;DHT22;42154;51.992;5.896;2024-02-26T08:33:09;5.60;99.90
56240;DHT22;42154;51.992;5.896;2024-02-26T08:35:36;5.60;99.90
56240;DHT22;42154;51.992;5.896;2024-02-26T08:38:02;5.60;99.90
56240;DHT22;42154;51.992;5.896;2024-02-26T08:40:29;5.60;99.90
56240;DHT22;42154;51.992;5.896;2024-02-26T08:42:54;5.60;99.90
56240;DHT22;42154;51.992;5.896;2024-02-26T08:45:21;5.60;99.90
56240;DHT22;42154;51.992;5.896;2024-02-26T08:47:47;5.60;99.90
56240;DHT22;42154;51.992;5.896;2024-02-26T08:50:14;5.60;99.90
56240;DHT22;42154;51.992;5.896;2024-02-26T08:52:40;5.60;99.90
56240;DHT22;42154;51.992;5.896;2024-02-26T08:55:06;5.50;99.90
56240;DHT22;42154;51.992;5.896;2024-02-26T08:57:34;5.60;99.90
56240;DHT22;42154;51.992;5.896;2024-02-26T09:00:03;5.50;99.90
56240;DHT22;42154;51.992;5.896;2024-02-26T09:02:29;5.50;99.90
56240;DHT22;42154;51.992;5.896;2024-02-26T09:04:55;5.50;99.90
56240;DHT22;42154;51.992;5.896;2024-02-26T09:07:22;5.50;99.90
56240;DHT22;42154;51.992;5.896;2024-02-26T09:09:48;5.50;99.90
56240;DHT22;42154;51.992;5.896;2024-02-26T09:12:14;5.50;99.90
56240;DHT22;42154;51.992;5.896;2024-02-26T09:14:39;5.50;99.90
56240;DHT22;42154;51.992;5.896;2024-02-26T09:17:05;5.50;99.90
56240;DHT22;42154;51.992;5.896;2024-02-26T09:19:33;5.50;99.90
56240;DHT22;42154;51.992;5.896;2024-02-26T09:21:58;5.60;99.90
56240;DHT22;42154;51.992;5.896;2024-02-26T09:24:25;5.60;99.90
56240;DHT22;42154;51.992;5.896;2024-02-26T09:26:51;5.60;99.90
56240;DHT22;42154;51.992;5.896;2024-02-26T09:29:17;5.60;99.90
56240;DHT22;42154;51.992;5.896;2024-02-26T09:31:43;5.70;99.90
56240;DHT22;42154;51.992;5.896;2024-02-26T09:34:12;5.70;99.90
56240;DHT22;42154;51.992;5.896;2024-02-26T09:36:38;5.60;99.90
56240;DHT22;42154;51.992;5.896;2024-02-26T09:39:04;5.70;99.90
56240;DHT22;42154;51.992;5.896;2024-02-26T09:41:31;5.70;99.90
56240;DHT22;42154;51.992;5.896;2024-02-26T09:43:58;5.70;99.90
56240;DHT22;42154;51.992;5.896;2024-02-26T09:46:25;5.70;99.90
56240;DHT22;42154;51.992;5.896;2024-02-26T09:48:51;5.60;99.90
56240;DHT22;42154;51.992;5.896;2024-02-26T09:51:18;5.70;99.90
56240;DHT22;42154;51.992;5.896;2024-02-26T09:53:44;5.70;99.90
56240;DHT22;42154;51.992;5.896;2024-02-26T09:56:12;5.70;99.90
56240;DHT22;42154;51.992;5.896;2024-02-26T09:58:39;5.70;99.90
56240;DHT22;42154;51.992;5.896;2024-02-26T10:01:11;5.70;99.90
56240;DHT22;42154;51.992;5.896;2024-02-26T10:03:51;5.70;99.90
56240;DHT22;42154;51.992;5.896;2024-02-26T10:06:18;5.70;99.90
56240;DHT22;42154;51.992;5.896;2024-02-26T10:08:44;5.70;99.90
56240;DHT22;42154;51.992;5.896;2024-02-26T10:11:10;5.70;99.90
56240;DHT22;42154;51.992;5.896;2024-02-26T10:13:36;5.70;99.90
56240;DHT22;42154;51.992;5.896;2024-02-26T10:16:03;5.70;99.90
56240;DHT22;42154;51.992;5.896;2024-02-26T10:18:53;5.80;99.90
56240;DHT22;42154;51.992;5.896;2024-02-26T10:21:22;5.90;99.90
56240;DHT22;42154;51.992;5.896;2024-02-26T10:23:49;5.80;99.90
56240;DHT22;42154;51.992;5.896;2024-02-26T10:26:16;5.80;99.90
56240;DHT22;42154;51.992;5.896;2024-02-26T10:28:43;5.90;99.90
56240;DHT22;42154;51.992;5.896;2024-02-26T10:31:09;5.90;99.90
56240;DHT22;42154;51.992;5.896;2024-02-26T10:33:36;5.90;99.90
56240;DHT22;42154;51.992;5.896;2024-02-26T10:36:06;5.80;99.90
56240;DHT22;42154;51.992;5.896;2024-02-26T10:38:34;5.80;99.90
56240;DHT22;42154;51.992;5.896;2024-02-26T10:41:02;5.80;99.90
56240;DHT22;42154;51.992;5.896;2024-02-26T10:43:28;5.80;99.90
56240;DHT22;42154;51.992;5.896;2024-02-26T10:45:55;5.90;99.90
56240;DHT22;42154;51.992;5.896;2024-02-26T10:48:21;5.90;99.90
56240;DHT22;42154;51.992;5.896;2024-02-26T10:50:47;5.80;99.90
56240;DHT22;42154;51.992;5.896;2024-02-26T10:53:19;5.90;99.90
56240;DHT22;42154;51.992;5.896;2024-02-26T10:55:49;6.00;99.90
56240;DHT22;42154;51.992;5.896;2024-02-26T10:58:18;6.00;99.90
56240;DHT22;42154;51.992;5.896;2024-02-26T11:00:45;6.00;99.90
56240;DHT22;42154;51.992;5.896;2024-02-26T11:03:14;6.00;99.90
56240;DHT22;42154;51.992;5.896;2024-02-26T11:05:43;6.00;99.90
56240;DHT22;42154;51.992;5.896;2024-02-26T11:08:11;6.00;99.90
56240;DHT22;42154;51.992;5.896;2024-02-26T11:10:37;6.00;99.90
56240;DHT22;42154;51.992;5.896;2024-02-26T11:13:05;6.00;99.90
56240;DHT22;42154;51.992;5.896;2024-02-26T11:15:32;6.00;99.90
56240;DHT22;42154;51.992;5.896;2024-02-26T11:18:00;6.00;99.90
56240;DHT22;42154;51.992;5.896;2024-02-26T11:20:28;6.00;99.90
56240;DHT22;42154;51.992;5.896;2024-02-26T11:22:55;6.00;99.90
56240;DHT22;42154;51.992;5.896;2024-02-26T11:25:21;6.00;99.90
56240;DHT22;42154;51.992;5.896;2024-02-26T11:27:51;6.00;99.90
56240;DHT22;42154;51.992;5.896;2024-02-26T11:30:18;6.00;99.90
56240;DHT22;42154;51.992;5.896;2024-02-26T11:32:47;6.00;99.90
56240;DHT22;42154;51.992;5.896;2024-02-26T11:35:14;6.00;99.90
56240;DHT22;42154;51.992;5.896;2024-02-26T11:37:54;6.00;99.90
56240;DHT22;42154;51.992;5.896;2024-02-26T11:40:25;6.00;99.90
56240;DHT22;42154;51.992;5.896;2024-02-26T11:42:51;6.00;99.90
56240;DHT22;42154;51.992;5.896;2024-02-26T11:48:03;6.00;99.90
56240;DHT22;42154;51.992;5.896;2024-02-26T11:50:36;6.00;99.90
56240;DHT22;42154;51.992;5.896;2024-02-26T11:53:38;6.00;99.90
56240;DHT22;42154;51.992;5.896;2024-02-26T11:58:42;6.00;99.90
56240;DHT22;42154;51.992;5.896;2024-02-26T12:01:40;6.00;99.90
56240;DHT22;42154;51.992;5.896;2024-02-26T12:04:10;6.00;99.90
56240;DHT22;42154;51.992;5.896;2024-02-26T12:09:12;5.90;99.90
56240;DHT22;42154;51.992;5.896;2024-02-26T12:11:40;6.00;99.90
56240;DHT22;42154;51.992;5.896;2024-02-26T12:14:08;6.00;99.90
56240;DHT22;42154;51.992;5.896;2024-02-26T12:16:40;6.10;99.90
56240;DHT22;42154;51.992;5.896;2024-02-26T12:19:09;6.00;99.90
56240;DHT22;42154;51.992;5.896;2024-02-26T12:21:35;6.00;99.90
56240;DHT22;42154;51.992;5.896;2024-02-26T12:24:20;6.10;99.90
56240;DHT22;42154;51.992;5.896;2024-02-26T12:26:46;6.10;99.90
56240;DHT22;42154;51.992;5.896;2024-02-26T12:29:12;6.00;99.90
56240;DHT22;42154;51.992;5.896;2024-02-26T12:31:40;6.10;99.90
56240;DHT22;42154;51.992;5.896;2024-02-26T12:34:06;6.10;99.90
56240;DHT22;42154;51.992;5.896;2024-02-26T12:36:34;6.10;99.90
56240;DHT22;42154;51.992;5.896;2024-02-26T12:39:03;6.10;99.90
56240;DHT22;42154;51.992;5.896;2024-02-26T12:41:31;6.10;99.90
56240;DHT22;42154;51.992;5.896;2024-02-26T12:43:57;6.10;99.90
56240;DHT22;42154;51.992;5.896;2024-02-26T12:46:24;6.10;99.90
56240;DHT22;42154;51.992;5.896;2024-02-26T12:48:50;6.20;99.90
56240;DHT22;42154;51.992;5.896;2024-02-26T12:51:16;6.20;99.90
56240;DHT22;42154;51.992;5.896;2024-02-26T12:53:44;6.30;99.90
56240;DHT22;42154;51.992;5.896;2024-02-26T12:56:11;6.30;99.90
56240;DHT22;42154;51.992;5.896;2024-02-26T12:58:40;6.30;99.90
56240;DHT22;42154;51.992;5.896;2024-02-26T13:01:07;6.40;99.90
56240;DHT22;42154;51.992;5.896;2024-02-26T13:03:39;6.40;99.90
56240;DHT22;42154;51.992;5.896;2024-02-26T13:06:05;6.40;99.90
56240;DHT22;42154;51.992;5.896;2024-02-26T13:08:32;6.40;99.90
56240;DHT22;42154;51.992;5.896;2024-02-26T13:10:59;6.40;99.90
56240;DHT22;42154;51.992;5.896;2024-02-26T13:13:25;6.50;99.90
56240;DHT22;42154;51.992;5.896;2024-02-26T13:16:04;6.60;99.90
56240;DHT22;42154;51.992;5.896;2024-02-26T13:18:30;6.60;99.90
56240;DHT22;42154;51.992;5.896;2024-02-26T13:23:34;6.50;99.90
56240;DHT22;42154;51.992;5.896;2024-02-26T13:26:00;6.50;99.90
56240;DHT22;42154;51.992;5.896;2024-02-26T13:28:26;6.50;99.90
56240;DHT22;42154;51.992;5.896;2024-02-26T13:30:54;6.60;99.90
56240;DHT22;42154;51.992;5.896;2024-02-26T13:33:24;6.60;99.90
56240;DHT22;42154;51.992;5.896;2024-02-26T13:35:50;6.60;99.90
56240;DHT22;42154;51.992;5.896;2024-02-26T13:38:16;6.70;99.90
56240;DHT22;42154;51.992;5.896;2024-02-26T13:40:42;6.70;99.90
56240;DHT22;42154;51.992;5.896;2024-02-26T13:43:08;6.70;99.90
56240;DHT22;42154;51.992;5.896;2024-02-26T13:45:34;6.70;99.90
56240;DHT22;42154;51.992;5.896;2024-02-26T13:48:06;6.70;99.90
56240;DHT22;42154;51.992;5.896;2024-02-26T13:50:32;6.80;99.90
56240;DHT22;42154;51.992;5.896;2024-02-26T13:52:58;6.80;99.90
56240;DHT22;42154;51.992;5.896;2024-02-26T13:55:25;6.80;99.90
56240;DHT22;42154;51.992;5.896;2024-02-26T13:57:54;6.80;99.90
56240;DHT22;42154;51.992;5.896;2024-02-26T14:00:20;6.80;99.90
56240;DHT22;42154;51.992;5.896;2024-02-26T14:02:46;6.80;99.90
56240;DHT22;42154;51.992;5.896;2024-02-26T14:05:12;6.80;99.90
56240;DHT22;42154;51.992;5.896;2024-02-26T14:07:38;6.90;99.90
56240;DHT22;42154;51.992;5.896;2024-02-26T14:10:04;6.90;99.90
56240;DHT22;42154;51.992;5.896;2024-02-26T14:12:30;6.90;99.90
56240;DHT22;42154;51.992;5.896;2024-02-26T14:14:56;7.00;99.90
56240;DHT22;42154;51.992;5.896;2024-02-26T14:17:24;6.80;99.90
56240;DHT22;42154;51.992;5.896;2024-02-26T14:19:50;6.90;99.90
56240;DHT22;42154;51.992;5.896;2024-02-26T14:22:15;7.00;99.90
56240;DHT22;42154;51.992;5.896;2024-02-26T14:24:42;7.00;99.90
56240;DHT22;42154;51.992;5.896;2024-02-26T14:27:12;7.00;99.90
56240;DHT22;42154;51.992;5.896;2024-02-26T14:29:43;7.00;99.90
56240;DHT22;42154;51.992;5.896;2024-02-26T14:32:09;7.00;99.90
56240;DHT22;42154;51.992;5.896;2024-02-26T14:34:35;7.00;99.90
56240;DHT22;42154;51.992;5.896;2024-02-26T14:37:01;7.00;99.90
56240;DHT22;42154;51.992;5.896;2024-02-26T14:39:27;7.00;99.90
56240;DHT22;42154;51.992;5.896;2024-02-26T14:41:55;7.00;99.90
56240;DHT22;42154;51.992;5.896;2024-02-26T14:44:21;7.00;99.90
56240;DHT22;42154;51.992;5.896;2024-02-26T14:46:46;7.00;99.90
56240;DHT22;42154;51.992;5.896;2024-02-26T14:49:12;7.00;99.90
56240;DHT22;42154;51.992;5.896;2024-02-26T14:51:38;7.00;99.90
56240;DHT22;42154;51.992;5.896;2024-02-26T14:54:04;7.00;99.90
56240;DHT22;42154;51.992;5.896;2024-02-26T14:56:30;7.00;99.90
56240;DHT22;42154;51.992;5.896;2024-02-26T14:58:55;7.00;99.90
56240;DHT22;42154;51.992;5.896;2024-02-26T15:01:22;6.90;99.90
56240;DHT22;42154;51.992;5.896;2024-02-26T15:03:48;6.90;99.90
56240;DHT22;42154;51.992;5.896;2024-02-26T15:06:14;7.00;99.90
56240;DHT22;42154;51.992;5.896;2024-02-26T15:08:40;6.90;99.90
56240;DHT22;42154;51.992;5.896;2024-02-26T15:11:06;6.90;99.90
56240;DHT22;42154;51.992;5.896;2024-02-26T15:13:33;6.90;99.90
56240;DHT22;42154;51.992;5.896;2024-02-26T15:15:59;6.90;99.90
56240;DHT22;42154;51.992;5.896;2024-02-26T15:18:25;6.90;99.90
56240;DHT22;42154;51.992;5.896;2024-02-26T15:20:51;6.90;99.90
56240;DHT22;42154;51.992;5.896;2024-02-26T15:23:17;6.90;99.90
56240;DHT22;42154;51.992;5.896;2024-02-26T15:25:44;6.80;99.90
56240;DHT22;42154;51.992;5.896;2024-02-26T15:28:10;6.80;99.90
56240;DHT22;42154;51.992;5.896;2024-02-26T15:30:37;6.80;99.90
56240;DHT22;42154;51.992;5.896;2024-02-26T15:33:03;6.70;99.90
56240;DHT22;42154;51.992;5.896;2024-02-26T15:35:29;6.70;99.90
56240;DHT22;42154;51.992;5.896;2024-02-26T15:37:54;6.70;99.90
56240;DHT22;42154;51.992;5.896;2024-02-26T15:40:20;6.70;99.90
56240;DHT22;42154;51.992;5.896;2024-02-26T15:42:47;6.60;99.90
56240;DHT22;42154;51.992;5.896;2024-02-26T15:45:13;6.60;99.90
56240;DHT22;42154;51.992;5.896;2024-02-26T15:47:38;6.60;99.90
56240;DHT22;42154;51.992;5.896;2024-02-26T15:50:06;6.60;99.90
56240;DHT22;42154;51.992;5.896;2024-02-26T15:52:32;6.60;99.90